Time;durP1;ratioP1;P1;durP2;ratioP2;P2;SDS_P1;SDS_P2;PMS_P1;PMS_P2;Temp;Humidity;BMP_temperature;BMP_pressure;BME280_temperature;BME280_humidity;BME280_pressure;Samples;Min_cycle;Max_cycle;Signal;HPM_P1;HPM_P2
2023/03/05 00:01:29;;;;;;;8.93;5.45;;;;;;;5.38;66.49;100471.94;5060097;28;20540;-74
2023/03/05 00:03:56;;;;;;;11.75;5.75;;;;;;;5.35;67.03;100467.00;5064003;28;20039;-74
2023/03/05 00:06:24;;;;;;;16.88;6.07;;;;;;;5.42;66.56;100475.97;5065736;28;20039;-73
2023/03/05 00:08:52;;;;;;;13.93;5.93;;;;;;;5.48;66.76;100477.28;5064933;28;20025;-74
2023/03/05 00:11:18;;;;;;;17.85;5.57;;;;;;;5.47;66.63;100475.63;5061379;28;20029;-74
2023/03/05 00:13:44;;;;;;;14.13;6.47;;;;;;;5.47;66.62;100470.47;5061627;28;20078;-74
2023/03/05 00:16:12;;;;;;;14.48;5.90;;;;;;;5.51;66.50;100472.72;5066834;28;20040;-74
2023/03/05 00:18:38;;;;;;;13.00;5.30;;;;;;;5.55;66.20;100466.38;5067653;28;20035;-75
2023/03/05 00:21:05;;;;;;;11.20;5.68;;;;;;;5.51;66.36;100471.88;5067221;28;20024;-75
2023/03/05 00:23:30;;;;;;;10.35;6.03;;;;;;;5.51;66.06;100454.63;5065419;28;20060;-75
2023/03/05 00:25:59;;;;;;;13.55;4.70;;;;;;;5.57;66.13;100464.50;5066311;28;20067;-75
2023/03/05 00:28:24;;;;;;;10.98;6.35;;;;;;;5.55;65.69;100460.38;5065794;28;20081;-75
2023/03/05 00:30:50;;;;;;;10.80;5.15;;;;;;;5.57;65.97;100461.09;5065062;28;20465;-75
2023/03/05 00:33:15;;;;;;;8.13;4.50;;;;;;;5.58;66.03;100463.56;5063688;28;20094;-75
2023/03/05 00:35:43;;;;;;;11.93;4.60;;;;;;;5.57;66.04;100458.50;5067973;28;20037;-75
2023/03/05 00:38:09;;;;;;;10.15;4.70;;;;;;;5.50;66.09;100462.47;5062747;28;20040;-75
2023/03/05 00:40:37;;;;;;;9.60;4.60;;;;;;;5.46;66.87;100456.72;5067670;28;20025;-75
2023/03/05 00:43:03;;;;;;;9.20;4.35;;;;;;;5.40;67.20;100457.16;5067422;28;20071;-75
2023/03/05 00:45:28;;;;;;;12.18;5.68;;;;;;;5.26;68.21;100457.31;5060381;28;20053;-75
2023/03/05 00:47:54;;;;;;;13.80;5.63;;;;;;;5.17;68.23;100450.25;5061018;28;20036;-75
2023/03/05 00:50:19;;;;;;;10.43;4.68;;;;;;;5.22;68.14;100453.31;5056736;28;20123;-75
2023/03/05 00:52:44;;;;;;;10.20;4.97;;;;;;;5.34;67.78;100448.09;5058569;28;20039;-75
2023/03/05 00:55:10;;;;;;;11.95;5.22;;;;;;;5.53;66.37;100447.56;5067861;28;20039;-75
2023/03/05 00:57:35;;;;;;;10.23;4.60;;;;;;;5.63;66.02;100450.31;5057157;28;20036;-74
2023/03/05 01:00:01;;;;;;;9.35;5.13;;;;;;;5.72;65.23;100448.78;5060302;28;20066;-75
2023/03/05 01:02:26;;;;;;;7.93;4.60;;;;;;;5.78;64.74;100443.97;5058096;28;20043;-74
2023/03/05 01:04:51;;;;;;;12.35;4.72;;;;;;;5.79;64.87;100442.22;5055902;28;20476;-75
2023/03/05 01:07:17;;;;;;;10.15;4.28;;;;;;;5.92;64.15;100436.06;5060158;28;20102;-75
2023/03/05 01:09:43;;;;;;;11.98;4.38;;;;;;;5.89;64.24;100440.63;5058654;28;20076;-75
2023/03/05 01:12:08;;;;;;;13.27;3.80;;;;;;;5.87;64.61;100439.91;5057808;28;20045;-75
2023/03/05 01:14:34;;;;;;;9.95;4.22;;;;;;;5.85;64.81;100432.25;5057863;28;20033;-75
2023/03/05 01:17:00;;;;;;;10.07;5.25;;;;;;;5.78;65.13;100438.00;5057764;28;20476;-75
2023/03/05 01:19:25;;;;;;;9.23;4.60;;;;;;;5.59;65.75;100436.78;5065847;28;20131;-75
2023/03/05 01:21:51;;;;;;;12.05;5.82;;;;;;;5.46;66.62;100435.22;5063431;28;20033;-75
2023/03/05 01:24:16;;;;;;;9.88;5.20;;;;;;;5.28;68.01;100437.38;5055588;28;20040;-75
2023/03/05 01:26:42;;;;;;;8.00;4.43;;;;;;;5.20;68.32;100440.50;5059567;28;20035;-75
2023/03/05 01:29:07;;;;;;;12.43;4.80;;;;;;;5.20;68.12;100434.53;5058264;28;20048;-75
2023/03/05 01:31:33;;;;;;;13.23;5.10;;;;;;;5.19;68.53;100427.72;5057537;28;20044;-75
2023/03/05 01:33:59;;;;;;;9.48;5.10;;;;;;;5.17;68.70;100430.41;5060475;28;20501;-75
2023/03/05 01:36:25;;;;;;;9.63;5.05;;;;;;;5.23;68.27;100431.72;5060800;28;20028;-75
2023/03/05 01:38:50;;;;;;;10.80;5.72;;;;;;;5.28;68.54;100429.63;5064659;28;20055;-75
2023/03/05 01:41:17;;;;;;;12.05;5.25;;;;;;;5.27;68.04;100420.22;5059690;28;20032;-76
2023/03/05 01:43:49;;;;;;;9.95;5.13;;;;;;;5.18;68.49;100428.66;5065295;28;20044;-74
2023/03/05 01:46:36;;;;;;;12.30;5.25;;;;;;;5.15;68.31;100421.13;5058031;28;20044;-74
2023/03/05 01:49:14;;;;;;;12.65;5.10;;;;;;;5.15;69.04;100426.31;5057627;28;20143;-74
2023/03/05 01:51:57;;;;;;;9.05;5.00;;;;;;;5.15;68.67;100426.31;5062019;28;20491;-74
2023/03/05 01:54:28;;;;;;;12.32;5.40;;;;;;;5.14;68.61;100428.06;5060221;28;20039;-75
2023/03/05 01:56:56;;;;;;;7.57;4.38;;;;;;;5.09;68.68;100422.41;5057987;28;20086;-75
2023/03/05 01:59:23;;;;;;;10.63;4.32;;;;;;;5.09;68.72;100422.41;5062997;28;20238;-74
2023/03/05 02:01:53;;;;;;;13.57;5.05;;;;;;;5.01;68.95;100424.69;5062934;28;20429;-75
2023/03/05 02:04:22;;;;;;;12.23;3.67;;;;;;;4.97;68.66;100424.09;5065332;28;20024;-75
2023/03/05 02:06:48;;;;;;;13.85;5.13;;;;;;;4.91;68.74;100428.88;5061266;28;20024;-75
2023/03/05 02:09:14;;;;;;;11.98;5.38;;;;;;;4.84;69.77;100427.66;5062847;28;20953;-74
2023/03/05 02:11:40;;;;;;;11.57;5.45;;;;;;;4.77;70.49;100427.25;5066656;28;20506;-75
2023/03/05 02:14:08;;;;;;;10.25;5.40;;;;;;;4.86;71.13;100428.38;5059129;28;20032;-75
2023/03/05 02:16:37;;;;;;;12.07;5.68;;;;;;;4.86;70.89;100426.63;5062463;28;20032;-74
2023/03/05 02:19:05;;;;;;;12.93;5.30;;;;;;;4.83;71.43;100421.66;5060327;28;20153;-74
2023/03/05 02:21:40;;;;;;;9.15;5.07;;;;;;;4.77;71.92;100422.09;5057030;28;20036;-74
2023/03/05 02:24:06;;;;;;;15.43;5.33;;;;;;;4.79;71.71;100430.56;5059813;28;20437;-74
2023/03/05 02:26:31;;;;;;;13.80;5.70;;;;;;;4.81;71.36;100423.53;5057966;28;20083;-74
2023/03/05 02:29:00;;;;;;;17.00;6.18;;;;;;;4.78;72.26;100418.59;5057419;28;20503;-74
2023/03/05 02:31:26;;;;;;;12.82;5.63;;;;;;;4.76;72.56;100414.47;5043719;28;20032;-74
2023/03/05 02:33:52;;;;;;;19.05;5.82;;;;;;;4.72;72.40;100413.06;5065066;28;20086;-74
2023/03/05 02:36:18;;;;;;;14.65;5.70;;;;;;;4.73;72.21;100422.41;5063833;28;20523;-74
2023/03/05 02:38:46;;;;;;;11.35;5.75;;;;;;;4.69;72.63;100414.09;5060897;28;20134;-74
2023/03/05 02:41:12;;;;;;;14.48;5.78;;;;;;;4.63;72.79;100415.34;5067662;28;20146;-74
2023/03/05 02:43:38;;;;;;;13.80;6.00;;;;;;;4.70;72.33;100408.00;5059991;28;20199;-74
2023/03/05 02:46:04;;;;;;;11.65;6.15;;;;;;;4.75;72.33;100402.47;5063383;28;20476;-74
2023/03/05 02:48:29;;;;;;;11.48;4.95;;;;;;;4.81;71.49;100408.03;5064441;28;20028;-75
2023/03/05 02:50:55;;;;;;;11.32;5.20;;;;;;;4.81;71.30;100402.88;5059341;28;20036;-75
2023/03/05 02:53:22;;;;;;;11.73;5.07;;;;;;;4.80;71.26;100398.66;5062674;28;20113;-74
2023/03/05 02:55:48;;;;;;;11.88;5.25;;;;;;;4.82;71.74;100401.94;5061943;28;20025;-74
2023/03/05 02:58:14;;;;;;;15.40;5.93;;;;;;;4.80;71.59;100390.91;5065647;28;20510;-75
2023/03/05 03:00:40;;;;;;;13.95;5.10;;;;;;;4.83;71.33;100389.88;5065439;28;20067;-75
2023/03/05 03:03:05;;;;;;;9.95;5.13;;;;;;;4.79;71.23;100394.41;5068038;28;20029;-75
2023/03/05 03:05:31;;;;;;;10.95;5.15;;;;;;;4.78;71.33;100384.19;5063261;28;20036;-75
2023/03/05 03:07:56;;;;;;;10.07;5.05;;;;;;;4.80;70.92;100385.75;5062911;28;20032;-75
2023/03/05 03:10:22;;;;;;;11.05;5.97;;;;;;;4.80;71.78;100384.91;5067527;28;20115;-75
2023/03/05 03:12:47;;;;;;;13.52;5.30;;;;;;;4.74;71.83;100377.59;5064249;28;20040;-74
2023/03/05 03:15:15;;;;;;;12.18;5.15;;;;;;;4.72;72.24;100380.31;5065925;28;20507;-74
2023/03/05 03:17:40;;;;;;;12.55;5.03;;;;;;;4.73;71.82;100375.97;5064330;28;20028;-75
2023/03/05 03:20:09;;;;;;;15.52;5.43;;;;;;;4.74;71.51;100385.34;5064797;28;20500;-75
2023/03/05 03:22:35;;;;;;;10.02;5.32;;;;;;;4.76;71.42;100379.16;5063926;28;20047;-74
2023/03/05 03:25:01;;;;;;;10.65;5.63;;;;;;;4.71;70.99;100386.41;5065341;28;20040;-74
2023/03/05 03:27:26;;;;;;;16.65;6.78;;;;;;;4.36;71.56;100388.88;5066864;28;20033;-74
2023/03/05 03:29:52;;;;;;;9.95;4.68;;;;;;;4.02;72.63;100387.00;5065709;28;20029;-75
2023/03/05 03:32:17;;;;;;;17.42;5.75;;;;;;;3.82;73.57;100390.91;5069669;28;20043;-74
2023/03/05 03:34:43;;;;;;;12.30;6.03;;;;;;;3.82;74.24;100390.91;5065803;28;20563;-75
2023/03/05 03:37:09;;;;;;;11.80;6.13;;;;;;;4.05;74.78;100382.44;5067291;28;20488;-74
2023/03/05 03:39:35;;;;;;;15.95;7.10;;;;;;;4.20;75.02;100378.81;5066676;28;20043;-74
2023/03/05 03:42:00;;;;;;;17.10;6.25;;;;;;;4.29;74.80;100374.75;5067460;28;20384;-75
2023/03/05 03:44:26;;;;;;;14.18;7.00;;;;;;;4.32;74.38;100380.53;5068201;28;20028;-75
2023/03/05 03:46:53;;;;;;;11.52;5.88;;;;;;;4.31;74.91;100384.03;5067683;28;20048;-74
2023/03/05 03:49:21;;;;;;;15.45;6.53;;;;;;;4.37;74.40;100381.97;5064902;28;20037;-74
2023/03/05 03:51:47;;;;;;;10.20;6.03;;;;;;;4.37;74.33;100382.78;5061572;28;20044;-74
2023/03/05 03:54:14;;;;;;;11.38;5.75;;;;;;;4.29;74.34;100375.59;5068249;28;20039;-74
2023/03/05 03:56:40;;;;;;;8.68;5.20;;;;;;;4.26;74.72;100374.97;5066239;28;20035;-74
2023/03/05 03:59:06;;;;;;;9.52;6.03;;;;;;;4.31;75.03;100378.06;5065570;28;20127;-74
2023/03/05 04:01:31;;;;;;;11.95;5.70;;;;;;;4.33;74.45;100379.59;5069116;28;20112;-74
2023/03/05 04:03:56;;;;;;;12.90;6.32;;;;;;;4.25;75.44;100381.88;5066512;28;20407;-74
2023/03/05 04:06:22;;;;;;;11.07;5.78;;;;;;;4.33;74.38;100382.19;5066629;28;20039;-74
2023/03/05 04:08:47;;;;;;;15.85;4.97;;;;;;;4.43;73.60;100382.38;5063701;28;20109;-74
2023/03/05 04:11:14;;;;;;;11.02;4.47;;;;;;;4.51;73.39;100372.34;5063704;28;20052;-74
2023/03/05 04:13:39;;;;;;;12.35;5.78;;;;;;;4.51;73.19;100371.50;5066435;28;20035;-74
2023/03/05 04:16:05;;;;;;;12.15;5.65;;;;;;;4.51;73.30;100374.91;5063283;28;20032;-74
2023/03/05 04:18:31;;;;;;;11.95;6.07;;;;;;;4.52;73.54;100373.16;5065251;28;20044;-74
2023/03/05 04:20:56;;;;;;;10.00;5.15;;;;;;;4.47;73.54;100372.66;5059574;28;20020;-74
2023/03/05 04:23:22;;;;;;;8.82;4.88;;;;;;;4.41;74.18;100367.94;5067196;28;20162;-74
2023/03/05 04:25:47;;;;;;;13.32;5.90;;;;;;;4.29;74.21;100365.25;5060890;28;20376;-75
2023/03/05 04:28:12;;;;;;;13.77;5.75;;;;;;;4.19;75.29;100364.28;5059785;28;20437;-74
2023/03/05 04:30:38;;;;;;;14.90;5.32;;;;;;;4.23;75.10;100360.56;5058427;28;20029;-74
2023/03/05 04:33:04;;;;;;;7.55;4.72;;;;;;;4.32;74.60;100359.91;5063189;28;20162;-75
2023/03/05 04:35:29;;;;;;;12.63;4.88;;;;;;;4.41;74.04;100362.75;5060910;28;20115;-74
2023/03/05 04:37:56;;;;;;;12.77;5.82;;;;;;;4.43;73.78;100361.72;5058225;28;20071;-74
2023/03/05 04:40:21;;;;;;;16.40;4.65;;;;;;;4.30;74.13;100356.59;5059957;28;20479;-74
2023/03/05 04:42:46;;;;;;;12.90;6.03;;;;;;;4.09;75.00;100358.09;5059057;28;20729;-74
2023/03/05 04:45:12;;;;;;;9.82;4.90;;;;;;;4.07;74.65;100352.22;5053843;28;20040;-74
2023/03/05 04:47:38;;;;;;;11.15;4.57;;;;;;;4.12;74.73;100352.75;5064550;28;20028;-75
2023/03/05 04:50:05;;;;;;;9.55;5.18;;;;;;;3.97;74.85;100349.44;5064606;28;20031;-74
2023/03/05 04:52:31;;;;;;;11.70;5.32;;;;;;;3.64;75.80;100352.56;5067149;28;20207;-74
2023/03/05 04:54:56;;;;;;;11.07;5.10;;;;;;;3.50;76.86;100357.00;5059154;28;20119;-74
2023/03/05 04:57:22;;;;;;;13.50;6.40;;;;;;;3.56;76.43;100352.25;5061925;28;20043;-74
2023/03/05 04:59:47;;;;;;;9.35;5.03;;;;;;;3.59;76.02;100352.06;5062250;28;20063;-75
2023/03/05 05:02:12;;;;;;;12.88;5.70;;;;;;;3.56;76.69;100344.53;5061467;28;20028;-74
2023/03/05 05:04:39;;;;;;;9.32;5.10;;;;;;;3.65;76.16;100351.66;5057418;28;20441;-74
2023/03/05 05:07:06;;;;;;;15.55;5.90;;;;;;;3.51;76.32;100345.75;5059924;28;20429;-74
2023/03/05 05:09:32;;;;;;;14.65;5.95;;;;;;;3.20;77.62;100352.13;5063680;28;20049;-74
2023/03/05 05:11:57;;;;;;;11.65;5.97;;;;;;;3.08;78.32;100340.06;5064224;28;20047;-74
2023/03/05 05:14:23;;;;;;;12.02;5.25;;;;;;;2.96;78.49;100347.63;5064408;28;20035;-74
2023/03/05 05:16:48;;;;;;;14.13;6.30;;;;;;;3.05;79.33;100342.81;5063381;28;20036;-74
2023/03/05 05:19:13;;;;;;;16.13;6.05;;;;;;;3.08;78.54;100355.50;5060599;28;20032;-74
2023/03/05 05:21:39;;;;;;;16.52;5.85;;;;;;;2.99;79.27;100355.16;5062878;28;20052;-74
2023/03/05 05:24:05;;;;;;;15.27;6.75;;;;;;;2.91;78.97;100354.81;5063513;28;20116;-74
2023/03/05 05:26:31;;;;;;;12.50;4.88;;;;;;;2.78;79.55;100356.56;5061403;28;20096;-74
2023/03/05 05:28:56;;;;;;;11.32;5.32;;;;;;;2.66;80.30;100352.19;5055865;28;20028;-74
2023/03/05 05:31:22;;;;;;;18.60;6.20;;;;;;;2.53;80.99;100353.88;5056835;28;20040;-74
2023/03/05 05:33:47;;;;;;;17.17;6.05;;;;;;;2.43;81.77;100350.22;5059821;28;20031;-74
2023/03/05 05:36:17;;;;;;;10.45;5.30;;;;;;;2.37;82.04;100358.31;5060241;28;20039;-74
2023/03/05 05:38:43;;;;;;;16.58;7.55;;;;;;;2.59;82.86;100353.47;5061410;28;20047;-74
2023/03/05 05:41:14;;;;;;;16.58;7.40;;;;;;;3.30;81.42;100353.19;5063456;28;20028;-74
2023/03/05 05:43:40;;;;;;;13.57;6.70;;;;;;;3.53;78.95;100346.50;5067485;28;20051;-74
2023/03/05 05:46:09;;;;;;;14.48;7.03;;;;;;;3.41;79.43;100355.03;5062684;28;20109;-74
2023/03/05 05:48:36;;;;;;;13.48;6.97;;;;;;;3.42;79.57;100347.19;5057081;28;20029;-74
2023/03/05 05:51:22;;;;;;;20.27;8.23;;;;;;;3.64;79.71;100352.56;5060810;28;20063;-74
2023/03/05 05:53:48;;;;;;;12.75;6.55;;;;;;;3.80;78.52;100348.94;5061582;28;20033;-74
2023/03/05 05:56:15;;;;;;;17.13;7.57;;;;;;;4.15;78.33;100356.84;5061285;28;20032;-74
2023/03/05 05:58:41;;;;;;;17.92;8.55;;;;;;;4.41;76.91;100360.19;5063065;28;20128;-74
2023/03/05 06:01:19;;;;;;;18.50;7.95;;;;;;;4.22;77.20;100355.50;5058559;28;20031;-74
2023/03/05 06:03:45;;;;;;;16.95;7.80;;;;;;;4.14;77.54;100363.78;5056324;28;20044;-74
2023/03/05 06:06:13;;;;;;;14.85;7.57;;;;;;;4.24;77.45;100367.38;5061191;28;20074;-74
2023/03/05 06:08:38;;;;;;;19.88;8.57;;;;;;;4.50;76.62;100362.94;5060368;28;20037;-74
2023/03/05 06:11:05;;;;;;;13.38;7.80;;;;;;;4.68;76.39;100355.66;5065678;28;20037;-74
2023/03/05 06:13:31;;;;;;;14.60;8.27;;;;;;;4.86;75.01;100362.06;5062857;28;20074;-74
2023/03/05 06:15:57;;;;;;;16.30;8.32;;;;;;;4.85;75.36;100363.00;5059390;28;20036;-74
2023/03/05 06:18:23;;;;;;;17.50;7.82;;;;;;;4.93;74.60;100371.03;5059700;28;20033;-75
2023/03/05 06:21:00;;;;;;;18.70;8.43;;;;;;;5.04;74.34;100369.44;5064826;28;20021;-74
2023/03/05 06:23:26;;;;;;;17.40;8.65;;;;;;;4.95;74.76;100365.75;5048183;28;20454;-74
2023/03/05 06:25:54;;;;;;;18.60;8.35;;;;;;;4.85;75.22;100367.34;5067689;28;20039;-74
2023/03/05 06:28:19;;;;;;;17.50;7.93;;;;;;;4.71;75.02;100370.94;5062413;28;20491;-74
2023/03/05 06:30:45;;;;;;;16.50;9.60;;;;;;;4.51;76.00;100372.34;5057612;28;20060;-74
2023/03/05 06:33:11;;;;;;;21.33;9.70;;;;;;;4.38;76.71;100370.72;5061369;28;20043;-74
2023/03/05 06:35:41;;;;;;;16.75;8.30;;;;;;;4.40;76.47;100371.44;5057498;28;20502;-75
2023/03/05 06:38:08;;;;;;;18.40;9.18;;;;;;;4.34;76.82;100372.69;5058430;28;20411;-74
2023/03/05 06:40:34;;;;;;;17.08;8.52;;;;;;;4.33;76.67;100361.53;5054217;28;20033;-74
2023/03/05 06:42:59;;;;;;;18.10;8.82;;;;;;;4.42;76.43;100370.41;5053093;28;20357;-73
2023/03/05 06:45:25;;;;;;;15.50;8.40;;;;;;;4.63;75.73;100363.75;5059469;28;20082;-74
2023/03/05 06:47:51;;;;;;;21.65;9.73;;;;;;;4.73;75.48;100363.88;5053922;28;20064;-74
2023/03/05 06:50:16;;;;;;;20.83;9.38;;;;;;;4.81;75.22;100369.31;5055466;28;20086;-74
2023/03/05 06:52:42;;;;;;;21.15;9.75;;;;;;;5.19;73.69;100365.75;5055896;28;20552;-74
2023/03/05 06:55:09;;;;;;;19.60;10.25;;;;;;;5.46;72.91;100368.03;5061862;28;20032;-75
2023/03/05 06:57:36;;;;;;;15.70;8.63;;;;;;;5.95;71.31;100367.78;5063897;28;20513;-75
2023/03/05 07:00:10;;;;;;;16.98;9.32;;;;;;;6.62;68.11;100368.50;5059477;28;20094;-75
2023/03/05 07:02:36;;;;;;;16.27;8.82;;;;;;;7.02;66.34;100372.28;5062226;28;20041;-75
2023/03/05 07:05:03;;;;;;;16.95;10.63;;;;;;;7.35;64.92;100368.69;5065576;28;20053;-75
2023/03/05 07:07:28;;;;;;;16.70;10.00;;;;;;;7.51;64.38;100375.09;5064138;28;20032;-75
2023/03/05 07:09:54;;;;;;;14.80;9.50;;;;;;;7.57;63.67;100369.38;5055884;28;20086;-76
2023/03/05 07:12:19;;;;;;;18.05;10.18;;;;;;;7.58;63.84;100358.03;5048855;28;20048;-76
2023/03/05 07:14:44;;;;;;;14.40;8.90;;;;;;;8.17;62.57;100367.75;5062049;28;20021;-75
2023/03/05 07:17:10;;;;;;;21.70;9.48;;;;;;;8.04;61.76;100367.13;5053070;28;20036;-75
2023/03/05 07:19:37;;;;;;;15.13;9.70;;;;;;;7.85;62.79;100372.25;5060832;28;20024;-75
2023/03/05 07:22:02;;;;;;;19.08;10.38;;;;;;;8.22;61.50;100370.75;5061633;28;20437;-75
2023/03/05 07:24:28;;;;;;;19.70;10.07;;;;;;;8.49;59.89;100366.78;5065248;28;20058;-75
2023/03/05 07:26:57;;;;;;;16.52;10.25;;;;;;;8.58;59.99;100366.78;5066824;28;20036;-75
2023/03/05 07:29:24;;;;;;;17.55;9.80;;;;;;;8.88;58.97;100367.66;5062221;28;20037;-75
2023/03/05 07:31:49;;;;;;;17.25;9.68;;;;;;;8.59;59.60;100363.22;5061845;28;20033;-76
2023/03/05 07:34:15;;;;;;;16.33;10.15;;;;;;;8.05;61.59;100363.59;5063803;28;20020;-75
2023/03/05 07:36:41;;;;;;;14.93;9.00;;;;;;;8.17;61.60;100370.34;5064119;28;20029;-73
2023/03/05 07:39:07;;;;;;;13.18;8.25;;;;;;;7.99;61.71;100369.31;5059909;28;20031;-76
2023/03/05 07:41:33;;;;;;;15.73;9.02;;;;;;;7.62;62.88;100377.59;5060261;28;20024;-75
2023/03/05 07:43:58;;;;;;;16.67;8.65;;;;;;;7.93;62.37;100377.63;5058998;28;20025;-75
2023/03/05 07:46:26;;;;;;;17.05;9.15;;;;;;;8.39;60.76;100369.34;5061112;28;20036;-75
2023/03/05 07:48:53;;;;;;;17.23;9.88;;;;;;;8.55;60.47;100369.63;5065255;28;20115;-75
2023/03/05 07:51:19;;;;;;;15.48;9.52;;;;;;;8.14;61.01;100375.78;5062617;28;20112;-76
2023/03/05 07:53:47;;;;;;;19.52;10.45;;;;;;;7.69;62.56;100375.31;5062658;28;20032;-75
2023/03/05 07:56:12;;;;;;;18.60;10.45;;;;;;;7.88;62.67;100372.00;5061140;28;20032;-76
2023/03/05 07:58:38;;;;;;;18.70;10.02;;;;;;;7.81;62.73;100366.50;5060571;28;20480;-72
2023/03/05 08:01:12;;;;;;;16.02;9.85;;;;;;;7.72;63.35;100371.63;5062831;28;20033;-72
2023/03/05 08:03:38;;;;;;;15.63;8.63;;;;;;;7.69;63.75;100374.47;5072247;28;20016;-72
2023/03/05 08:06:07;;;;;;;16.65;9.45;;;;;;;7.71;62.96;100370.00;5057591;28;20043;-74
2023/03/05 08:08:32;;;;;;;18.30;9.20;;;;;;;7.76;63.35;100366.06;5058239;28;20045;-74
2023/03/05 08:11:04;;;;;;;23.70;9.30;;;;;;;7.93;63.27;100362.06;5064609;28;20037;-75
2023/03/05 08:13:29;;;;;;;16.23;8.98;;;;;;;7.98;63.00;100371.09;5059618;28;20112;-76
2023/03/05 08:15:54;;;;;;;19.30;9.80;;;;;;;7.97;63.31;100364.28;5063193;28;20555;-75
2023/03/05 08:18:20;;;;;;;14.25;9.23;;;;;;;7.95;63.03;100366.16;5061945;28;20029;-73
2023/03/05 08:20:45;;;;;;;17.42;9.43;;;;;;;7.98;62.98;100367.69;5059430;28;20033;-76
2023/03/05 08:23:11;;;;;;;23.42;10.82;;;;;;;8.05;63.19;100368.78;5066460;28;20071;-76
2023/03/05 08:25:37;;;;;;;16.52;9.80;;;;;;;8.13;62.45;100361.16;5064409;28;20028;-76
2023/03/05 08:28:03;;;;;;;16.13;9.70;;;;;;;8.22;62.76;100373.34;5065127;28;20418;-76
2023/03/05 08:30:28;;;;;;;15.75;9.18;;;;;;;8.24;62.22;100368.84;5059831;28;20020;-76
2023/03/05 08:32:54;;;;;;;17.10;9.60;;;;;;;8.22;61.91;100365.56;5057384;28;20037;-76
2023/03/05 08:35:22;;;;;;;15.43;9.50;;;;;;;8.26;61.86;100366.94;5066893;28;20025;-75
2023/03/05 08:37:47;;;;;;;16.20;8.98;;;;;;;8.35;61.63;100359.38;5064196;28;20036;-75
2023/03/05 08:40:13;;;;;;;18.85;9.63;;;;;;;8.47;61.98;100368.69;5061701;28;20036;-75
2023/03/05 08:42:38;;;;;;;15.75;9.20;;;;;;;8.52;62.11;100367.31;5061309;28;20449;-74
2023/03/05 08:45:04;;;;;;;13.85;9.02;;;;;;;8.55;61.44;100371.41;5062878;28;20032;-78
2023/03/05 08:47:30;;;;;;;15.90;8.90;;;;;;;8.63;61.30;100369.78;5071954;28;20215;-77
2023/03/05 08:49:56;;;;;;;16.30;9.20;;;;;;;8.69;61.03;100376.22;5086237;28;20028;-78
2023/03/05 08:52:22;;;;;;;16.20;9.52;;;;;;;9.26;59.97;100365.03;5082402;28;20056;-77
2023/03/05 08:54:47;;;;;;;14.48;8.30;;;;;;;10.15;57.40;100369.84;5076575;28;20047;-77
2023/03/05 08:57:13;;;;;;;13.48;8.60;;;;;;;10.40;56.34;100373.59;5081709;28;20037;-76
2023/03/05 08:59:38;;;;;;;15.13;8.27;;;;;;;10.29;56.09;100365.03;5085106;28;20040;-76
2023/03/05 09:02:04;;;;;;;14.40;7.75;;;;;;;11.09;54.67;100367.75;5080161;28;20123;-77
2023/03/05 09:04:29;;;;;;;13.90;7.90;;;;;;;12.00;51.76;100366.44;5081976;28;20024;-77
2023/03/05 09:06:56;;;;;;;13.30;7.93;;;;;;;10.91;53.67;100373.78;5073975;28;20035;-77
2023/03/05 09:09:21;;;;;;;13.50;7.00;;;;;;;9.74;56.09;100368.50;5067614;28;20036;-77
2023/03/05 09:11:47;;;;;;;12.60;8.00;;;;;;;9.37;56.71;100365.84;5073602;28;20496;-72
2023/03/05 09:14:13;;;;;;;16.70;8.73;;;;;;;9.28;57.50;100364.91;5057441;28;20028;-75
2023/03/05 09:16:39;;;;;;;12.65;7.40;;;;;;;9.33;57.79;100357.50;5059696;28;20035;-72
2023/03/05 09:19:07;;;;;;;17.88;8.38;;;;;;;9.31;57.54;100364.63;5081282;28;20024;-77
2023/03/05 09:21:33;;;;;;;11.63;7.90;;;;;;;9.24;57.66;100358.34;5079348;28;20032;-77
2023/03/05 09:23:59;;;;;;;14.18;8.38;;;;;;;9.35;57.86;100358.19;5074791;28;20029;-75
2023/03/05 09:26:25;;;;;;;15.57;8.60;;;;;;;9.51;57.70;100355.81;5081036;28;20028;-76
2023/03/05 09:28:50;;;;;;;13.50;7.45;;;;;;;9.51;56.75;100355.00;5078849;28;20095;-76
2023/03/05 09:31:16;;;;;;;16.25;8.23;;;;;;;9.47;56.68;100351.03;5078577;28;20063;-77
2023/03/05 09:33:42;;;;;;;14.23;8.10;;;;;;;9.40;56.77;100352.56;5071702;28;20028;-75
2023/03/05 09:36:22;;;;;;;15.75;7.65;;;;;;;9.53;56.07;100343.50;5071265;28;20557;-72
2023/03/05 09:38:48;;;;;;;14.80;7.30;;;;;;;9.52;56.82;100354.84;5056811;28;20032;-71
2023/03/05 09:41:20;;;;;;;14.15;8.40;;;;;;;9.50;57.02;100353.34;5052349;28;20032;-72
2023/03/05 09:43:48;;;;;;;14.07;8.00;;;;;;;9.59;56.84;100345.53;5057011;28;20850;-74
2023/03/05 09:46:42;;;;;;;13.02;7.53;;;;;;;9.63;56.86;100348.66;5075199;28;20068;-72
2023/03/05 09:49:20;;;;;;;17.40;8.50;;;;;;;9.57;56.61;100350.06;5074140;28;20044;-76
2023/03/05 09:51:50;;;;;;;14.27;7.70;;;;;;;9.75;55.98;100346.72;5068613;28;20029;-74
2023/03/05 09:54:20;;;;;;;12.73;8.40;;;;;;;9.78;55.95;100342.06;5055355;28;20538;-73
2023/03/05 09:56:52;;;;;;;17.70;8.00;;;;;;;9.81;56.73;100335.75;5056642;28;20124;-74
2023/03/05 09:59:30;;;;;;;15.85;7.72;;;;;;;9.79;57.20;100332.47;5074752;28;20088;-75
2023/03/05 10:02:00;;;;;;;17.92;8.27;;;;;;;9.72;57.04;100340.03;5071999;28;20074;-73
2023/03/05 10:05:07;;;;;;;13.40;8.30;;;;;;;9.76;55.33;100337.97;5061309;28;20037;-74
2023/03/05 10:07:37;;;;;;;17.40;8.40;;;;;;;9.73;56.08;100327.84;5064959;28;20036;-75
2023/03/05 10:10:13;;;;;;;15.10;8.65;;;;;;;9.78;55.95;100329.06;5073864;28;20041;-74
2023/03/05 10:12:50;;;;;;;14.60;8.35;;;;;;;9.95;55.69;100323.06;5073507;28;20048;-74
2023/03/05 10:15:20;;;;;;;12.23;7.97;;;;;;;10.10;55.41;100327.81;5047260;28;20040;-75
2023/03/05 10:17:58;;;;;;;15.88;8.27;;;;;;;10.20;55.47;100329.44;5079167;28;20059;-73
2023/03/05 10:20:53;;;;;;;14.75;8.77;;;;;;;10.36;55.08;100321.00;5074215;28;20044;-74
2023/03/05 10:23:31;;;;;;;12.25;8.05;;;;;;;10.37;55.50;100314.81;5040793;28;20548;-74
2023/03/05 10:26:24;;;;;;;14.15;8.05;;;;;;;10.40;53.85;100317.09;5051079;28;20045;-70
2023/03/05 10:28:58;;;;;;;19.73;9.57;;;;;;;10.34;53.94;100320.31;5049590;28;20546;-74
2023/03/05 10:32:01;;;;;;;14.93;8.48;;;;;;;10.35;54.23;100310.72;5054590;28;20037;-74
2023/03/05 10:34:49;;;;;;;12.80;8.18;;;;;;;10.40;54.76;100316.31;5065259;28;20041;-70
2023/03/05 10:37:20;;;;;;;13.15;8.05;;;;;;;10.57;54.93;100318.91;5068186;28;20051;-70
2023/03/05 10:40:17;;;;;;;15.88;8.45;;;;;;;10.69;54.14;100310.88;5067209;28;20047;-70
2023/03/05 10:42:53;;;;;;;;;;;;;;;10.77;52.04;100306.56;5053578;28;20441;-70
2023/03/05 10:45:43;;;;;;;16.13;7.93;;;;;;;10.71;53.10;100298.53;5067357;28;19916;-72
2023/03/05 10:48:15;;;;;;;16.50;8.63;;;;;;;10.76;53.85;100294.50;5061134;28;20029;-71
2023/03/05 10:50:50;;;;;;;12.27;7.10;;;;;;;10.76;53.43;100297.13;5059756;28;20044;-72
2023/03/05 10:53:24;;;;;;;13.75;8.13;;;;;;;10.76;53.04;100286.69;5056514;28;20523;-71
2023/03/05 10:55:54;;;;;;;13.82;7.57;;;;;;;10.81;53.16;100289.66;5060391;28;20123;-74
2023/03/05 10:58:21;;;;;;;11.85;7.18;;;;;;;10.70;52.84;100284.69;5060645;28;20070;-71
2023/03/05 11:01:09;;;;;;;13.30;7.68;;;;;;;10.64;52.09;100280.06;5069710;28;20556;-73
2023/03/05 11:03:58;;;;;;;15.80;8.18;;;;;;;10.74;51.62;100278.19;5073247;28;20036;-73
2023/03/05 11:06:46;;;;;;;16.73;8.40;;;;;;;10.76;50.91;100276.25;5073803;28;20142;-73
2023/03/05 11:09:33;;;;;;;11.50;6.78;;;;;;;10.78;50.65;100271.72;5067848;28;20140;-73
2023/03/05 11:12:15;;;;;;;16.02;7.57;;;;;;;10.83;51.91;100269.50;5075091;28;20037;-72
2023/03/05 11:15:02;;;;;;;15.18;7.35;;;;;;;10.84;51.11;100262.47;5069329;28;20025;-73
2023/03/05 11:17:30;;;;;;;19.80;8.20;;;;;;;10.93;52.58;100251.94;5073365;28;20044;-73
2023/03/05 11:20:16;;;;;;;13.52;7.65;;;;;;;11.09;52.29;100242.59;5075030;28;20040;-72
2023/03/05 11:22:41;;;;;;;;;;;;;;;11.18;50.16;100249.53;5071643;28;20042;-73
2023/03/05 11:25:09;;;;;;;13.07;7.50;;;;;;;11.24;51.84;100251.50;5072108;28;19999;-73
2023/03/05 11:27:35;;;;;;;11.50;7.38;;;;;;;11.42;51.11;100246.22;5074404;28;20085;-73
2023/03/05 11:30:01;;;;;;;14.10;7.38;;;;;;;11.45;50.66;100240.69;5070201;28;20040;-74